Taxiarchis — SX9512 — position and weather

sailwx.info

Track history (hours):
 
Tides and Currents Weather Stations Pressure Air Temp Water Temp Dewpoint Dewpoint Depression Visibility Wind Speed Wind Dir Waves Ship Positions

Taxiarchis

Last reported at 2017-Nov-17 14:52 UTC. Time now 2017-Nov-17 19:42 UTC.
Position N 37°39' E 023°43'.

Length 72 m; draft 5.6 m.

Type: Tanker. MMSI: 239858000.

Date/timePositionNaut miles runAvg speedWind from/ knotsBaromVisibWave heightAir tempDewpointWater temp
2017-Nov-17 14:52N 37°39' E 023°43'3 9.2
2017-Nov-17 14:30N 37°42' E 023°41'4 9.0
2017-Nov-17 14:00N 37°46' E 023°38'4 8.9
2017-Nov-17 13:30N 37°51' E 023°36'5 9.1
2017-Nov-17 13:00N 37°55' E 023°35'4 7.4
2017-Nov-17 12:30N 37°58' E 023°33'4 5.4
2017-Nov-17 11:51N 38°02' E 023°32'0 0.1
2017-Nov-17 11:08N 38°02' E 023°32'0 0.1
2017-Nov-17 10:59N 38°02' E 023°32'0 0.0
2017-Nov-17 10:30N 38°02' E 023°32'0 0.0
2017-Nov-17 10:00N 38°02' E 023°32'0 0.0
2017-Nov-17 09:30N 38°02' E 023°32'0 0.0
2017-Nov-17 09:00N 38°02' E 023°32'0 0.0
2017-Nov-17 08:30N 38°02' E 023°32'0 0.0
2017-Nov-17 08:01N 38°02' E 023°32'0 0.0
2017-Nov-17 07:30N 38°02' E 023°32'0 0.0
2017-Nov-17 07:01N 38°02' E 023°32'0 0.0
2017-Nov-17 06:30N 38°02' E 023°32'1 1.2
2017-Nov-17 06:01N 38°01' E 023°32'3 5.2
2017-Nov-17 05:30N 38°02' E 023°36'0 0.0
2017-Nov-17 05:00N 38°02' E 023°36'0 0.0
2017-Nov-17 04:31N 38°02' E 023°36'0 0.0
2017-Nov-17 04:00N 38°02' E 023°36'0 0.0
2017-Nov-17 03:31N 38°02' E 023°36'0 0.0
2017-Nov-17 03:00N 38°02' E 023°36'0 0.0
2017-Nov-17 02:30N 38°02' E 023°36'0 0.0
2017-Nov-17 02:00N 38°02' E 023°36'0 0.0
2017-Nov-17 01:30N 38°02' E 023°36'0 0.0
2017-Nov-17 01:00N 38°02' E 023°36'0 0.0
2017-Nov-17 00:30N 38°02' E 023°36'0 0.0
2017-Nov-16 23:59N 38°02' E 023°36'0 0.0
2017-Nov-16 23:30N 38°02' E 023°36'0 0.0
2017-Nov-16 23:00N 38°02' E 023°36'0 0.0
2017-Nov-16 22:30N 38°02' E 023°36'0 0.0
2017-Nov-16 22:00N 38°02' E 023°36'0 0.0
2017-Nov-16 21:30N 38°02' E 023°36'0 0.0
2017-Nov-16 20:58N 38°02' E 023°36'0 0.0
2017-Nov-16 20:29N 38°02' E 023°36'0 0.0
2017-Nov-16 20:01N 38°02' E 023°36'0 0.0
2017-Nov-16 19:30N 38°02' E 023°36'0 0.0
2017-Nov-16 18:59N 38°02' E 023°36'0 0.0
2017-Nov-16 18:30N 38°02' E 023°36'0 0.0
2017-Nov-16 18:00N 38°02' E 023°36'0 0.0
2017-Nov-16 17:30N 38°02' E 023°36'0 0.0
2017-Nov-16 17:00N 38°02' E 023°36'0 0.0
2017-Nov-16 16:23N 38°02' E 023°36'0 0.0
2017-Nov-16 15:59N 38°02' E 023°36'0 0.0
2017-Nov-16 15:30N 38°02' E 023°36'0 0.0
2017-Nov-16 14:56N 38°02' E 023°36'0 0.0
2017-Nov-16 14:30N 38°02' E 023°36'0 0.0
2017-Nov-16 14:00N 38°02' E 023°36'0 0.6
2017-Nov-16 13:30N 38°02' E 023°35'3 6.5
2017-Nov-16 13:00N 38°02' E 023°31'0 0.5
2017-Nov-16 12:30N 38°02' E 023°32'0 0.1
2017-Nov-16 12:00N 38°02' E 023°32'0 0.0
2017-Nov-16 11:30N 38°02' E 023°32'0 0.0
2017-Nov-16 11:00N 38°02' E 023°32'0 0.0
2017-Nov-16 10:30N 38°02' E 023°32'0 0.0
2017-Nov-16 10:00N 38°02' E 023°32'0 0.0
2017-Nov-16 09:31N 38°02' E 023°32'0 0.0
2017-Nov-16 09:00N 38°02' E 023°32'0 0.0
2017-Nov-16 08:30N 38°02' E 023°32'0 0.2
2017-Nov-16 08:00N 38°02' E 023°32'0 0.1
2017-Nov-16 07:30N 38°02' E 023°32'0 0.2
2017-Nov-16 07:00N 38°02' E 023°32'0 0.0
2017-Nov-16 06:30N 38°02' E 023°32'0 0.0
2017-Nov-16 06:00N 38°02' E 023°32'0 0.0
2017-Nov-16 05:30N 38°02' E 023°32'0 0.0
2017-Nov-16 05:00N 38°02' E 023°32'0 0.0
2017-Nov-16 04:30N 38°02' E 023°32'0 0.0
2017-Nov-16 04:00N 38°02' E 023°32'0 0.0
2017-Nov-16 03:30N 38°02' E 023°32'0 0.0
2017-Nov-16 03:00N 38°02' E 023°32'0 0.0
2017-Nov-16 02:30N 38°02' E 023°32'0 0.0
2017-Nov-16 02:00N 38°02' E 023°32'0 0.0
2017-Nov-16 01:30N 38°02' E 023°32'0 0.0
2017-Nov-16 01:00N 38°02' E 023°32'0 0.0
2017-Nov-16 00:30N 38°02' E 023°32'0 0.0
2017-Nov-16 00:00N 38°02' E 023°32'0 0.0
2017-Nov-15 23:30N 38°02' E 023°32'0 0.0
2017-Nov-15 23:00N 38°02' E 023°32'0 0.0
2017-Nov-15 22:30N 38°02' E 023°32'0 0.0
2017-Nov-15 22:00N 38°02' E 023°32'0 0.1
2017-Nov-15 21:30N 38°02' E 023°32'0 0.0
2017-Nov-15 21:00N 38°02' E 023°32'0 0.0
2017-Nov-15 20:30N 38°02' E 023°32'0 0.0
2017-Nov-15 20:00N 38°02' E 023°32'0 0.0
2017-Nov-15 19:30N 38°02' E 023°32'0 0.0
2017-Nov-15 19:00N 38°02' E 023°32'0 0.0
2017-Nov-15 18:30N 38°02' E 023°32'0 0.0
2017-Nov-15 18:00N 38°02' E 023°32'0 0.0
2017-Nov-15 17:03N 38°02' E 023°32'0 0.0
2017-Nov-15 17:00N 38°02' E 023°32'0 0.0
2017-Nov-15 16:30N 38°02' E 023°32'0 0.0
2017-Nov-15 16:00N 38°02' E 023°32'0 0.0
2017-Nov-15 14:30N 38°02' E 023°32'0 0.0
2017-Nov-15 14:00N 38°02' E 023°32'0 0.0
2017-Nov-15 13:30N 38°02' E 023°32'0 0.0
2017-Nov-15 13:00N 38°02' E 023°32'0 0.1
2017-Nov-15 12:30N 38°02' E 023°32'0 0.1
2017-Nov-15 12:00N 38°02' E 023°32'0 0.0
2017-Nov-15 11:30N 38°02' E 023°32'0 0.0
2017-Nov-15 11:01N 38°02' E 023°32'0 0.2
2017-Nov-15 10:30N 38°02' E 023°32'0 0.0
2017-Nov-15 10:00N 38°02' E 023°32'0 0.0
2017-Nov-15 09:30N 38°02' E 023°32'0 0.0
2017-Nov-15 09:01N 38°02' E 023°32'0 0.0
2017-Nov-15 08:30N 38°02' E 023°32'0 0.0
2017-Nov-15 08:00N 38°02' E 023°32'0 0.0
2017-Nov-15 07:30N 38°02' E 023°32'0 0.0
2017-Nov-15 07:00N 38°02' E 023°32'0 0.0
2017-Nov-15 06:31N 38°02' E 023°32'0 0.0
2017-Nov-15 06:00N 38°02' E 023°32'0 0.0
2017-Nov-15 05:30N 38°02' E 023°32'0 0.0
2017-Nov-15 05:01N 38°02' E 023°32'0 0.0
2017-Nov-15 04:30N 38°02' E 023°32'0 0.0
2017-Nov-15 04:00N 38°02' E 023°32'0 0.0
2017-Nov-15 03:30N 38°02' E 023°32'0 0.0
2017-Nov-15 03:01N 38°02' E 023°32'0 0.0
2017-Nov-15 02:30N 38°02' E 023°32'0 0.0
2017-Nov-15 02:00N 38°02' E 023°32'0 0.0
2017-Nov-15 01:30N 38°02' E 023°32'0 0.0
2017-Nov-15 01:00N 38°02' E 023°32'0 0.0
2017-Nov-15 00:30N 38°02' E 023°32'0 0.0
2017-Nov-15 00:00N 38°02' E 023°32'0 0.0
2017-Nov-14 23:30N 38°02' E 023°32'0 0.0
2017-Nov-14 23:00N 38°02' E 023°32'0 0.0
2017-Nov-14 22:31N 38°02' E 023°32'0 0.0
2017-Nov-14 22:00N 38°02' E 023°32'0 0.0
2017-Nov-14 21:31N 38°02' E 023°32'0 0.0
2017-Nov-14 21:00N 38°02' E 023°32'0 0.0
2017-Nov-14 20:30N 38°02' E 023°32'0 0.0
2017-Nov-14 20:00N 38°02' E 023°32'0 0.0
2017-Nov-14 19:30N 38°02' E 023°32'0 0.0
2017-Nov-14 19:00N 38°02' E 023°32'0 0.0
2017-Nov-14 18:30N 38°02' E 023°32'0 0.0
2017-Nov-14 18:00N 38°02' E 023°32'0 0.0
2017-Nov-14 17:30N 38°02' E 023°32'0 0.0
2017-Nov-14 17:01N 38°02' E 023°32'0 0.1
2017-Nov-14 16:30N 38°02' E 023°32'0 0.1
2017-Nov-14 16:01N 38°02' E 023°32'0 0.2
2017-Nov-14 15:30N 38°02' E 023°32'0 0.1
2017-Nov-14 15:00N 38°02' E 023°32'0 0.1
2017-Nov-14 14:31N 38°02' E 023°32'0 0.0
2017-Nov-14 14:00N 38°02' E 023°32'0 0.0
2017-Nov-14 13:30N 38°02' E 023°32'0 0.0
2017-Nov-14 13:00N 38°02' E 023°32'0 0.0
2017-Nov-14 12:31N 38°02' E 023°32'0 0.0
2017-Nov-14 12:00N 38°02' E 023°32'0 0.0
2017-Nov-14 11:30N 38°02' E 023°32'0 0.0
2017-Nov-14 11:00N 38°02' E 023°32'0 0.0
2017-Nov-14 08:37N 38°02' E 023°32'0 0.1
2017-Nov-14 08:30N 38°02' E 023°32'0 0.1
2017-Nov-14 08:00N 38°02' E 023°32'0 0.0
2017-Nov-14 07:30N 38°02' E 023°32'0 0.0
2017-Nov-14 07:00N 38°02' E 023°32'0 0.0
2017-Nov-14 06:31N 38°02' E 023°32'0 0.0
2017-Nov-14 06:00N 38°02' E 023°32'0 0.1
2017-Nov-14 05:30N 38°02' E 023°32'0 0.1
2017-Nov-14 05:01N 38°02' E 023°32'0 0.0
2017-Nov-14 04:30N 38°02' E 023°32'0 0.0
2017-Nov-14 04:00N 38°02' E 023°32'0 0.0
2017-Nov-14 03:30N 38°02' E 023°32'0 0.0
2017-Nov-14 03:01N 38°02' E 023°32'0 0.1
2017-Nov-14 02:30N 38°02' E 023°32'0 0.0
2017-Nov-14 02:00N 38°02' E 023°32'0 0.0
2017-Nov-14 01:30N 38°02' E 023°32'0 0.0
2017-Nov-14 01:00N 38°02' E 023°32'0 0.0
2017-Nov-14 00:30N 38°02' E 023°32'0 0.0
2017-Nov-14 00:00N 38°02' E 023°32'0 0.1
2017-Nov-13 23:30N 38°02' E 023°32'0 0.1
2017-Nov-13 23:00N 38°02' E 023°32'0 0.0
2017-Nov-13 22:30N 38°02' E 023°32'0 0.0
2017-Nov-13 22:00N 38°02' E 023°32'0 0.0
2017-Nov-13 02:01N 38°02' E 023°32'0 0.0
2017-Nov-13 01:31N 38°02' E 023°32'0 0.0
2017-Nov-13 01:01N 38°02' E 023°32'0 0.0
2017-Nov-13 00:31N 38°02' E 023°32'0 0.0
2017-Nov-13 00:01N 38°02' E 023°32'0 0.0
2017-Nov-12 23:31N 38°02' E 023°32'0 0.0
2017-Nov-12 23:01N 38°02' E 023°32'0 0.0
2017-Nov-12 22:31N 38°02' E 023°32'0 0.0
2017-Nov-12 22:00N 38°02' E 023°32'0 0.0
2017-Nov-12 21:31N 38°02' E 023°32'0 0.0
2017-Nov-12 21:01N 38°02' E 023°32'0 0.0
2017-Nov-12 20:30N 38°02' E 023°32'0 0.0
2017-Nov-12 20:01N 38°02' E 023°32'0 0.0
2017-Nov-12 19:31N 38°02' E 023°32'0 0.0
2017-Nov-12 19:01N 38°02' E 023°32'0 0.0
2017-Nov-12 18:31N 38°02' E 023°32'0 0.0
2017-Nov-12 18:01N 38°02' E 023°32'0 0.0
2017-Nov-12 17:31N 38°02' E 023°32'0 0.0
2017-Nov-12 17:01N 38°02' E 023°32'0 0.0
2017-Nov-12 16:31N 38°02' E 023°32'0 0.0
2017-Nov-12 16:01N 38°02' E 023°32'0 0.0
2017-Nov-12 15:31N 38°02' E 023°32'0 0.0
2017-Nov-12 15:01N 38°02' E 023°32'0 0.0
2017-Nov-12 14:31N 38°02' E 023°32'0 0.0
2017-Nov-12 14:01N 38°02' E 023°32'0 0.0
2017-Nov-12 13:31N 38°02' E 023°32'0 0.0
2017-Nov-12 13:01N 38°02' E 023°32'0 0.0
2017-Nov-12 12:31N 38°02' E 023°32'0 0.0
2017-Nov-12 12:01N 38°02' E 023°32'0 0.0
2017-Nov-12 11:30N 38°02' E 023°32'0 0.0
2017-Nov-12 11:00N 38°02' E 023°32'0 0.0
2017-Nov-12 10:30N 38°02' E 023°32'0 0.0
2017-Nov-12 10:00N 38°02' E 023°32'0 0.0
2017-Nov-12 09:30N 38°02' E 023°32'0 0.0
2017-Nov-12 09:00N 38°02' E 023°32'0 0.0
2017-Nov-12 08:30N 38°02' E 023°32'0 0.0
2017-Nov-12 08:00N 38°02' E 023°32'0 0.0
2017-Nov-12 07:30N 38°02' E 023°32'0 0.2
2017-Nov-12 07:00N 38°02' E 023°32'0 0.0
2017-Nov-12 06:30N 38°02' E 023°32'0 0.0
2017-Nov-12 06:00N 38°02' E 023°32'0 0.0
2017-Nov-12 05:30N 38°02' E 023°32'0 0.0
2017-Nov-12 05:00N 38°02' E 023°32'0 0.0
2017-Nov-12 04:30N 38°02' E 023°32'0 0.0
2017-Nov-12 04:00N 38°02' E 023°32'0 0.0
2017-Nov-12 03:30N 38°02' E 023°32'0 0.0
2017-Nov-12 03:00N 38°02' E 023°32'0 0.0
2017-Nov-12 02:30N 38°02' E 023°32'0 0.0
2017-Nov-12 02:00N 38°02' E 023°32'0 0.0
2017-Nov-12 01:30N 38°02' E 023°32'0 0.0
2017-Nov-12 01:00N 38°02' E 023°32'0 0.0
2017-Nov-12 00:30N 38°02' E 023°32'0 0.0
2017-Nov-12 00:00N 38°02' E 023°32'0 0.0
2017-Nov-11 23:30N 38°02' E 023°32'0 0.0
2017-Nov-11 23:00N 38°02' E 023°32'0 0.0
2017-Nov-11 22:30N 38°02' E 023°32'0 0.0
2017-Nov-11 22:00N 38°02' E 023°32'0 0.0
2017-Nov-11 21:30N 38°02' E 023°32'0 0.0
2017-Nov-11 21:00N 38°02' E 023°32'0 0.0
2017-Nov-11 20:30N 38°02' E 023°32'0 0.0
2017-Nov-11 20:00N 38°02' E 023°32'0 0.0
2017-Nov-11 19:30N 38°02' E 023°32'0 0.1
2017-Nov-11 19:00N 38°02' E 023°32'0 0.1
2017-Nov-11 18:30N 38°02' E 023°32'0 0.0
2017-Nov-11 18:00N 38°02' E 023°32'0 0.0
2017-Nov-11 17:30N 38°02' E 023°32'0 0.0
2017-Nov-11 17:00N 38°02' E 023°32'0 0.0
2017-Nov-11 16:30N 38°02' E 023°32'0 0.0
2017-Nov-11 16:00N 38°02' E 023°32'0 0.0
2017-Nov-11 15:30N 38°02' E 023°32'0 0.0
2017-Nov-11 15:00N 38°02' E 023°32'0 0.0
2017-Nov-11 14:30N 38°02' E 023°32'0 0.0
2017-Nov-11 14:00N 38°02' E 023°32'0 0.0
2017-Nov-11 13:30N 38°02' E 023°32'0 0.0
2017-Nov-11 13:01N 38°02' E 023°32'0 0.0
2017-Nov-11 12:30N 38°02' E 023°32'0 0.0
2017-Nov-11 12:01N 38°02' E 023°32'0 0.0
2017-Nov-11 11:31N 38°02' E 023°32'0 0.0
2017-Nov-11 11:00N 38°02' E 023°32'0 0.1
2017-Nov-11 10:31N 38°02' E 023°32'0 0.0
2017-Nov-11 10:01N 38°02' E 023°32'0 0.1
2017-Nov-11 09:30N 38°02' E 023°32'0 0.1
2017-Nov-11 09:01N 38°02' E 023°32'0 0.0
2017-Nov-11 08:31N 38°02' E 023°32'0 0.1
2017-Nov-11 08:00N 38°02' E 023°32'0 0.0
2017-Nov-11 07:30N 38°02' E 023°32'0 0.0
2017-Nov-11 07:01N 38°02' E 023°32'0 0.0
2017-Nov-11 06:31N 38°02' E 023°32'0 0.0
2017-Nov-11 06:01N 38°02' E 023°32'0 0.0
2017-Nov-11 05:31N 38°02' E 023°32'0 0.0
2017-Nov-11 05:01N 38°02' E 023°32'0 0.0
2017-Nov-11 04:31N 38°02' E 023°32'0 0.0
2017-Nov-11 04:00N 38°02' E 023°32'0 0.0
2017-Nov-11 03:30N 38°02' E 023°32'0 0.0
2017-Nov-11 03:01N 38°02' E 023°32'0 0.0
2017-Nov-11 02:31N 38°02' E 023°32'0 0.0
2017-Nov-11 02:00N 38°02' E 023°32'0 0.0
2017-Nov-11 01:31N 38°02' E 023°32'0 0.0
2017-Nov-11 01:00N 38°02' E 023°32'0 0.0
2017-Nov-11 00:31N 38°02' E 023°32'0 0.0
2017-Nov-11 00:01N 38°02' E 023°32'0 0.0
2017-Nov-10 23:30N 38°02' E 023°32'0 0.0
2017-Nov-10 23:00N 38°02' E 023°32'0 0.0
2017-Nov-10 22:30N 38°02' E 023°32'0 0.0
2017-Nov-10 22:01N 38°02' E 023°32'0 0.0
2017-Nov-10 21:30N 38°02' E 023°32'0 0.0
2017-Nov-10 21:00N 38°02' E 023°32'0 0.0
2017-Nov-10 20:30N 38°02' E 023°32'0 0.0
2017-Nov-10 20:00N 38°02' E 023°32'0 0.0
2017-Nov-10 19:30N 38°02' E 023°32'0 0.0
2017-Nov-10 19:00N 38°02' E 023°32'0 0.1
2017-Nov-10 18:31N 38°02' E 023°32'0 0.0
2017-Nov-10 18:00N 38°02' E 023°32'0 0.0
2017-Nov-10 17:31N 38°02' E 023°32'0 0.1
2017-Nov-10 17:01N 38°02' E 023°32'0 0.0
2017-Nov-10 16:31N 38°02' E 023°32'0 0.0
2017-Nov-10 16:00N 38°02' E 023°32'0 0.0
2017-Nov-10 15:31N 38°02' E 023°32'0 0.0
2017-Nov-10 15:01N 38°02' E 023°32'0 0.0
2017-Nov-10 14:30N 38°02' E 023°32'0 0.0
2017-Nov-10 14:01N 38°02' E 023°32'0 0.0
2017-Nov-10 13:30N 38°02' E 023°32'0 0.0
2017-Nov-10 13:01N 38°02' E 023°32'0 0.0
2017-Nov-10 12:30N 38°02' E 023°32'0 0.0
2017-Nov-10 12:01N 38°02' E 023°32'0 0.0
2017-Nov-10 11:30N 38°02' E 023°32'0 0.0
2017-Nov-10 11:00N 38°02' E 023°32'0 0.0
2017-Nov-10 10:31N 38°02' E 023°32'0 0.0
2017-Nov-10 10:01N 38°02' E 023°32'0 0.0
2017-Nov-10 09:30N 38°02' E 023°32'0 0.0
2017-Nov-10 09:00N 38°02' E 023°32'0 0.0
2017-Nov-10 08:30N 38°02' E 023°32'0 0.0
2017-Nov-10 08:01N 38°02' E 023°32'0 0.0
2017-Nov-10 07:30N 38°02' E 023°32'0 0.0
2017-Nov-10 07:00N 38°02' E 023°32'0 0.0
2017-Nov-10 06:31N 38°02' E 023°32'0 0.0
2017-Nov-10 06:00N 38°02' E 023°32'0 0.0
2017-Nov-10 05:30N 38°02' E 023°32'0 0.0
2017-Nov-10 05:00N 38°02' E 023°32'0 0.1
2017-Nov-10 04:30N 38°02' E 023°32'0 0.0
2017-Nov-10 04:00N 38°02' E 023°32'0 0.1
2017-Nov-10 03:30N 38°02' E 023°32'0 0.1
2017-Nov-10 03:00N 38°02' E 023°32'0 0.0
2017-Nov-10 02:30N 38°02' E 023°32'0 0.0
2017-Nov-10 02:00N 38°02' E 023°32'0 0.0
2017-Nov-10 01:30N 38°02' E 023°32'0 0.0
2017-Nov-10 01:00N 38°02' E 023°32'0 0.0
2017-Nov-10 00:30N 38°02' E 023°32'0 0.0
2017-Nov-10 00:00N 38°02' E 023°32'0 0.0
2017-Nov-09 23:30N 38°02' E 023°32'0 0.0
2017-Nov-09 23:00N 38°02' E 023°32'0 0.0
2017-Nov-09 22:30N 38°02' E 023°32'0 0.0
2017-Nov-09 22:00N 38°02' E 023°32'0 0.0
2017-Nov-09 21:30N 38°02' E 023°32'0 0.0
2017-Nov-09 21:00N 38°02' E 023°32'0 0.0
2017-Nov-09 20:31N 38°02' E 023°32'0 0.0
2017-Nov-09 20:01N 38°02' E 023°32'0 0.0
2017-Nov-09 19:30N 38°02' E 023°32'0 0.0
2017-Nov-09 19:01N 38°02' E 023°32'0 0.0
2017-Nov-09 18:30N 38°02' E 023°32'0 0.0
2017-Nov-09 18:00N 38°02' E 023°32'0 0.0
2017-Nov-09 17:31N 38°02' E 023°32'0 0.0
2017-Nov-09 17:00N 38°02' E 023°32'0 0.0
2017-Nov-09 16:30N 38°02' E 023°32'0 0.0
2017-Nov-09 16:01N 38°02' E 023°32'0 0.1
2017-Nov-09 15:30N 38°02' E 023°32'0 0.0
2017-Nov-09 15:00N 38°02' E 023°32'0 0.0
2017-Nov-09 14:30N 38°02' E 023°32'0 0.0
2017-Nov-09 14:00N 38°02' E 023°32'0 0.0
2017-Nov-09 13:30N 38°02' E 023°32'0 0.0
2017-Nov-09 13:00N 38°02' E 023°32'0 0.0
2017-Nov-09 12:30N 38°02' E 023°32'0 0.0
2017-Nov-09 12:00N 38°02' E 023°32'0 0.0
2017-Nov-09 11:30N 38°02' E 023°32'0 0.0
2017-Nov-09 11:00N 38°02' E 023°32'0 0.0
2017-Nov-09 10:31N 38°02' E 023°32'0 0.0
2017-Nov-09 10:01N 38°02' E 023°32'0 0.0
2017-Nov-09 09:31N 38°02' E 023°32'0 0.1
2017-Nov-09 09:00N 38°02' E 023°32'0 0.0
2017-Nov-09 08:31N 38°02' E 023°32'0 0.0
2017-Nov-09 08:01N 38°02' E 023°32'0 0.0
2017-Nov-09 07:31N 38°02' E 023°32'0 0.1
2017-Nov-09 07:00N 38°02' E 023°32'0 0.0
2017-Nov-09 06:30N 38°02' E 023°32'0 0.0
2017-Nov-09 06:01N 38°02' E 023°32'0 0.0
2017-Nov-09 05:31N 38°02' E 023°32'0 0.0
2017-Nov-09 05:00N 38°02' E 023°32'0 0.0
2017-Nov-09 04:30N 38°02' E 023°32'0 0.0
2017-Nov-09 04:00N 38°02' E 023°32'0 0.0
2017-Nov-09 03:30N 38°02' E 023°32'0 0.0
2017-Nov-09 03:00N 38°02' E 023°32'0 0.0
2017-Nov-09 02:30N 38°02' E 023°32'0 0.1
2017-Nov-09 02:00N 38°02' E 023°32'0 0.1
2017-Nov-09 01:30N 38°02' E 023°32'0 0.0
2017-Nov-09 01:01N 38°02' E 023°32'0 0.0
2017-Nov-09 00:30N 38°02' E 023°32'0 0.0
2017-Nov-09 00:01N 38°02' E 023°32'0 0.0
2017-Nov-08 23:30N 38°02' E 023°32'0 0.0
2017-Nov-08 23:00N 38°02' E 023°32'0 0.1
2017-Nov-08 22:30N 38°02' E 023°32'0 0.1
2017-Nov-08 22:00N 38°02' E 023°32'0 0.0
2017-Nov-08 21:31N 38°02' E 023°32'0 0.0
2017-Nov-08 21:00N 38°02' E 023°32'0 0.0
2017-Nov-08 20:30N 38°02' E 023°32'0 0.0
2017-Nov-08 20:00N 38°02' E 023°32'0 0.1
2017-Nov-08 19:30N 38°02' E 023°32'0 0.0
2017-Nov-08 19:00N 38°02' E 023°32'0 0.0
2017-Nov-08 18:30N 38°02' E 023°32'0 0.0
2017-Nov-08 18:00N 38°02' E 023°32'0 0.0
2017-Nov-08 17:30N 38°02' E 023°32'0 0.0
2017-Nov-08 17:00N 38°02' E 023°32'0 0.0
2017-Nov-08 16:31N 38°02' E 023°32'0 0.0
2017-Nov-08 16:00N 38°02' E 023°32'0 0.0
2017-Nov-08 15:30N 38°02' E 023°32'0 0.0
2017-Nov-08 15:01N 38°02' E 023°32'0 0.0
2017-Nov-08 14:30N 38°02' E 023°32'0 0.0
2017-Nov-08 14:00N 38°02' E 023°32'0 0.0
2017-Nov-08 13:31N 38°02' E 023°32'0 0.1
2017-Nov-08 13:00N 38°02' E 023°32'0 0.0
2017-Nov-08 12:30N 38°02' E 023°32'0 0.1
2017-Nov-08 12:01N 38°02' E 023°32'0 0.0
2017-Nov-08 11:30N 38°02' E 023°32'0 0.1
2017-Nov-08 11:00N 38°02' E 023°32'0 0.0
2017-Nov-08 10:30N 38°02' E 023°32'0 0.1
2017-Nov-08 10:00N 38°02' E 023°32'0 0.1
2017-Nov-08 09:30N 38°02' E 023°32'0 0.0
2017-Nov-08 09:00N 38°02' E 023°32'0 0.0
2017-Nov-08 08:30N 38°02' E 023°32'0 0.0
2017-Nov-08 08:00N 38°02' E 023°32'0 0.0
2017-Nov-08 07:30N 38°02' E 023°32'0 0.0
2017-Nov-08 07:00N 38°02' E 023°32'0 0.0
2017-Nov-08 06:30N 38°02' E 023°32'0 0.0
2017-Nov-08 06:00N 38°02' E 023°32'0 0.0
2017-Nov-08 05:30N 38°02' E 023°32'0 0.0
2017-Nov-08 05:00N 38°02' E 023°32'0 0.0
2017-Nov-08 04:30N 38°02' E 023°32'0 0.0
2017-Nov-08 04:00N 38°02' E 023°32'0 0.0
2017-Nov-08 03:30N 38°02' E 023°32'0 0.0
2017-Nov-08 03:00N 38°02' E 023°32'0 0.0
2017-Nov-08 02:30N 38°02' E 023°32'0 0.0
2017-Nov-08 02:00N 38°02' E 023°32'0 0.0
2017-Nov-08 01:31N 38°02' E 023°32'0 0.0
2017-Nov-08 01:01N 38°02' E 023°32'0 0.0
2017-Nov-08 00:30N 38°02' E 023°32'0 0.0
2017-Nov-08 00:00N 38°02' E 023°32'0 0.0
2017-Nov-07 23:30N 38°02' E 023°32'0 0.0
2017-Nov-07 23:00N 38°02' E 023°32'0 0.0
2017-Nov-07 22:30N 38°02' E 023°32'0 0.0
2017-Nov-07 22:00N 38°02' E 023°32'0 0.0
2017-Nov-07 21:30N 38°02' E 023°32'0 0.0
2017-Nov-07 21:00N 38°02' E 023°32'0 0.1
2017-Nov-07 20:30N 38°02' E 023°32'0 0.1
2017-Nov-07 20:00N 38°02' E 023°32'0 0.0
2017-Nov-07 19:30N 38°02' E 023°32'0 0.0
2017-Nov-07 19:01N 38°02' E 023°32'0 0.1
2017-Nov-07 18:30N 38°02' E 023°32'0 0.0
2017-Nov-07 18:00N 38°02' E 023°32'0 0.1
2017-Nov-07 17:30N 38°02' E 023°32'0 0.0
2017-Nov-07 17:00N 38°02' E 023°32'0 0.0
2017-Nov-07 16:31N 38°02' E 023°32'0 0.0
2017-Nov-07 16:00N 38°02' E 023°32'0 0.0
2017-Nov-07 15:30N 38°02' E 023°32'0 0.0
2017-Nov-07 15:00N 38°02' E 023°32'  
Track history (hours):
 
Tides and Currents Weather Stations Pressure Air Temp Water Temp Dewpoint Dewpoint Depression Visibility Wind Speed Wind Dir Waves Ship Positions

Taxiarchis

Last reported at 2017-Nov-17 14:52 UTC. Time now 2017-Nov-17 19:42 UTC.
Position N 37°39' E 023°43'.

Length 72 m; draft 5.6 m.

Type: Tanker. MMSI: 239858000.

Date/timePositionNaut miles runAvg speedWind from/ knotsBaromVisibWave heightAir tempDewpointWater temp
2017-Nov-17 14:52N 37°39' E 023°43'3 9.2
2017-Nov-17 14:30N 37°42' E 023°41'4 9.0
2017-Nov-17 14:00N 37°46' E 023°38'4 8.9
2017-Nov-17 13:30N 37°51' E 023°36'5 9.1
2017-Nov-17 13:00N 37°55' E 023°35'4 7.4
2017-Nov-17 12:30N 37°58' E 023°33'4 5.4
2017-Nov-17 11:51N 38°02' E 023°32'0 0.1
2017-Nov-17 11:08N 38°02' E 023°32'0 0.1
2017-Nov-17 10:59N 38°02' E 023°32'0 0.0
2017-Nov-17 10:30N 38°02' E 023°32'0 0.0
2017-Nov-17 10:00N 38°02' E 023°32'0 0.0
2017-Nov-17 09:30N 38°02' E 023°32'0 0.0
2017-Nov-17 09:00N 38°02' E 023°32'0 0.0
2017-Nov-17 08:30N 38°02' E 023°32'0 0.0
2017-Nov-17 08:01N 38°02' E 023°32'0 0.0
2017-Nov-17 07:30N 38°02' E 023°32'0 0.0
2017-Nov-17 07:01N 38°02' E 023°32'0 0.0
2017-Nov-17 06:30N 38°02' E 023°32'1 1.2
2017-Nov-17 06:01N 38°01' E 023°32'3 5.2
2017-Nov-17 05:30N 38°02' E 023°36'0 0.0
2017-Nov-17 05:00N 38°02' E 023°36'0 0.0
2017-Nov-17 04:31N 38°02' E 023°36'0 0.0
2017-Nov-17 04:00N 38°02' E 023°36'0 0.0
2017-Nov-17 03:31N 38°02' E 023°36'0 0.0
2017-Nov-17 03:00N 38°02' E 023°36'0 0.0
2017-Nov-17 02:30N 38°02' E 023°36'0 0.0
2017-Nov-17 02:00N 38°02' E 023°36'0 0.0
2017-Nov-17 01:30N 38°02' E 023°36'0 0.0
2017-Nov-17 01:00N 38°02' E 023°36'0 0.0
2017-Nov-17 00:30N 38°02' E 023°36'0 0.0
2017-Nov-16 23:59N 38°02' E 023°36'0 0.0
2017-Nov-16 23:30N 38°02' E 023°36'0 0.0
2017-Nov-16 23:00N 38°02' E 023°36'0 0.0
2017-Nov-16 22:30N 38°02' E 023°36'0 0.0
2017-Nov-16 22:00N 38°02' E 023°36'0 0.0
2017-Nov-16 21:30N 38°02' E 023°36'0 0.0
2017-Nov-16 20:58N 38°02' E 023°36'0 0.0
2017-Nov-16 20:29N 38°02' E 023°36'0 0.0
2017-Nov-16 20:01N 38°02' E 023°36'0 0.0
2017-Nov-16 19:30N 38°02' E 023°36'0 0.0
2017-Nov-16 18:59N 38°02' E 023°36'0 0.0
2017-Nov-16 18:30N 38°02' E 023°36'0 0.0
2017-Nov-16 18:00N 38°02' E 023°36'0 0.0
2017-Nov-16 17:30N 38°02' E 023°36'0 0.0
2017-Nov-16 17:00N 38°02' E 023°36'0 0.0
2017-Nov-16 16:23N 38°02' E 023°36'0 0.0
2017-Nov-16 15:59N 38°02' E 023°36'0 0.0
2017-Nov-16 15:30N 38°02' E 023°36'0 0.0
2017-Nov-16 14:56N 38°02' E 023°36'0 0.0
2017-Nov-16 14:30N 38°02' E 023°36'0 0.0
2017-Nov-16 14:00N 38°02' E 023°36'0 0.6
2017-Nov-16 13:30N 38°02' E 023°35'3 6.5
2017-Nov-16 13:00N 38°02' E 023°31'0 0.5
2017-Nov-16 12:30N 38°02' E 023°32'0 0.1
2017-Nov-16 12:00N 38°02' E 023°32'0 0.0
2017-Nov-16 11:30N 38°02' E 023°32'0 0.0
2017-Nov-16 11:00N 38°02' E 023°32'0 0.0
2017-Nov-16 10:30N 38°02' E 023°32'0 0.0
2017-Nov-16 10:00N 38°02' E 023°32'0 0.0
2017-Nov-16 09:31N 38°02' E 023°32'0 0.0
2017-Nov-16 09:00N 38°02' E 023°32'0 0.0
2017-Nov-16 08:30N 38°02' E 023°32'0 0.2
2017-Nov-16 08:00N 38°02' E 023°32'0 0.1
2017-Nov-16 07:30N 38°02' E 023°32'0 0.2
2017-Nov-16 07:00N 38°02' E 023°32'0 0.0
2017-Nov-16 06:30N 38°02' E 023°32'0 0.0
2017-Nov-16 06:00N 38°02' E 023°32'0 0.0
2017-Nov-16 05:30N 38°02' E 023°32'0 0.0
2017-Nov-16 05:00N 38°02' E 023°32'0 0.0
2017-Nov-16 04:30N 38°02' E 023°32'0 0.0
2017-Nov-16 04:00N 38°02' E 023°32'0 0.0
2017-Nov-16 03:30N 38°02' E 023°32'0 0.0
2017-Nov-16 03:00N 38°02' E 023°32'0 0.0
2017-Nov-16 02:30N 38°02' E 023°32'0 0.0
2017-Nov-16 02:00N 38°02' E 023°32'0 0.0
2017-Nov-16 01:30N 38°02' E 023°32'0 0.0
2017-Nov-16 01:00N 38°02' E 023°32'0 0.0
2017-Nov-16 00:30N 38°02' E 023°32'0 0.0
2017-Nov-16 00:00N 38°02' E 023°32'0 0.0
2017-Nov-15 23:30N 38°02' E 023°32'0 0.0
2017-Nov-15 23:00N 38°02' E 023°32'0 0.0
2017-Nov-15 22:30N 38°02' E 023°32'0 0.0
2017-Nov-15 22:00N 38°02' E 023°32'0 0.1
2017-Nov-15 21:30N 38°02' E 023°32'0 0.0
2017-Nov-15 21:00N 38°02' E 023°32'0 0.0
2017-Nov-15 20:30N 38°02' E 023°32'0 0.0
2017-Nov-15 20:00N 38°02' E 023°32'0 0.0
2017-Nov-15 19:30N 38°02' E 023°32'0 0.0
2017-Nov-15 19:00N 38°02' E 023°32'0 0.0
2017-Nov-15 18:30N 38°02' E 023°32'0 0.0
2017-Nov-15 18:00N 38°02' E 023°32'0 0.0
2017-Nov-15 17:03N 38°02' E 023°32'0 0.0
2017-Nov-15 17:00N 38°02' E 023°32'0 0.0
2017-Nov-15 16:30N 38°02' E 023°32'0 0.0
2017-Nov-15 16:00N 38°02' E 023°32'0 0.0
2017-Nov-15 14:30N 38°02' E 023°32'0 0.0
2017-Nov-15 14:00N 38°02' E 023°32'0 0.0
2017-Nov-15 13:30N 38°02' E 023°32'0 0.0
2017-Nov-15 13:00N 38°02' E 023°32'0 0.1
2017-Nov-15 12:30N 38°02' E 023°32'0 0.1
2017-Nov-15 12:00N 38°02' E 023°32'0 0.0
2017-Nov-15 11:30N 38°02' E 023°32'0 0.0
2017-Nov-15 11:01N 38°02' E 023°32'0 0.2
2017-Nov-15 10:30N 38°02' E 023°32'0 0.0
2017-Nov-15 10:00N 38°02' E 023°32'0 0.0
2017-Nov-15 09:30N 38°02' E 023°32'0 0.0
2017-Nov-15 09:01N 38°02' E 023°32'0 0.0
2017-Nov-15 08:30N 38°02' E 023°32'0 0.0
2017-Nov-15 08:00N 38°02' E 023°32'0 0.0
2017-Nov-15 07:30N 38°02' E 023°32'0 0.0
2017-Nov-15 07:00N 38°02' E 023°32'0 0.0
2017-Nov-15 06:31N 38°02' E 023°32'0 0.0
2017-Nov-15 06:00N 38°02' E 023°32'0 0.0
2017-Nov-15 05:30N 38°02' E 023°32'0 0.0
2017-Nov-15 05:01N 38°02' E 023°32'0 0.0
2017-Nov-15 04:30N 38°02' E 023°32'0 0.0
2017-Nov-15 04:00N 38°02' E 023°32'0 0.0
2017-Nov-15 03:30N 38°02' E 023°32'0 0.0
2017-Nov-15 03:01N 38°02' E 023°32'0 0.0
2017-Nov-15 02:30N 38°02' E 023°32'0 0.0
2017-Nov-15 02:00N 38°02' E 023°32'0 0.0
2017-Nov-15 01:30N 38°02' E 023°32'0 0.0
2017-Nov-15 01:00N 38°02' E 023°32'0 0.0
2017-Nov-15 00:30N 38°02' E 023°32'0 0.0
2017-Nov-15 00:00N 38°02' E 023°32'0 0.0
2017-Nov-14 23:30N 38°02' E 023°32'0 0.0
2017-Nov-14 23:00N 38°02' E 023°32'0 0.0
2017-Nov-14 22:31N 38°02' E 023°32'0 0.0
2017-Nov-14 22:00N 38°02' E 023°32'0 0.0
2017-Nov-14 21:31N 38°02' E 023°32'0 0.0
2017-Nov-14 21:00N 38°02' E 023°32'0 0.0
2017-Nov-14 20:30N 38°02' E 023°32'0 0.0
2017-Nov-14 20:00N 38°02' E 023°32'0 0.0
2017-Nov-14 19:30N 38°02' E 023°32'0 0.0
2017-Nov-14 19:00N 38°02' E 023°32'0 0.0
2017-Nov-14 18:30N 38°02' E 023°32'0 0.0
2017-Nov-14 18:00N 38°02' E 023°32'0 0.0
2017-Nov-14 17:30N 38°02' E 023°32'0 0.0
2017-Nov-14 17:01N 38°02' E 023°32'0 0.1
2017-Nov-14 16:30N 38°02' E 023°32'0 0.1
2017-Nov-14 16:01N 38°02' E 023°32'0 0.2
2017-Nov-14 15:30N 38°02' E 023°32'0 0.1
2017-Nov-14 15:00N 38°02' E 023°32'0 0.1
2017-Nov-14 14:31N 38°02' E 023°32'0 0.0
2017-Nov-14 14:00N 38°02' E 023°32'0 0.0
2017-Nov-14 13:30N 38°02' E 023°32'0 0.0
2017-Nov-14 13:00N 38°02' E 023°32'0 0.0
2017-Nov-14 12:31N 38°02' E 023°32'0 0.0
2017-Nov-14 12:00N 38°02' E 023°32'0 0.0
2017-Nov-14 11:30N 38°02' E 023°32'0 0.0
2017-Nov-14 11:00N 38°02' E 023°32'0 0.0
2017-Nov-14 08:37N 38°02' E 023°32'0 0.1
2017-Nov-14 08:30N 38°02' E 023°32'0 0.1
2017-Nov-14 08:00N 38°02' E 023°32'0 0.0
2017-Nov-14 07:30N 38°02' E 023°32'0 0.0
2017-Nov-14 07:00N 38°02' E 023°32'0 0.0
2017-Nov-14 06:31N 38°02' E 023°32'0 0.0
2017-Nov-14 06:00N 38°02' E 023°32'0 0.1
2017-Nov-14 05:30N 38°02' E 023°32'0 0.1
2017-Nov-14 05:01N 38°02' E 023°32'0 0.0
2017-Nov-14 04:30N 38°02' E 023°32'0 0.0
2017-Nov-14 04:00N 38°02' E 023°32'0 0.0
2017-Nov-14 03:30N 38°02' E 023°32'0 0.0
2017-Nov-14 03:01N 38°02' E 023°32'0 0.1
2017-Nov-14 02:30N 38°02' E 023°32'0 0.0
2017-Nov-14 02:00N 38°02' E 023°32'0 0.0
2017-Nov-14 01:30N 38°02' E 023°32'0 0.0
2017-Nov-14 01:00N 38°02' E 023°32'0 0.0
2017-Nov-14 00:30N 38°02' E 023°32'0 0.0
2017-Nov-14 00:00N 38°02' E 023°32'0 0.1
2017-Nov-13 23:30N 38°02' E 023°32'0 0.1
2017-Nov-13 23:00N 38°02' E 023°32'0 0.0
2017-Nov-13 22:30N 38°02' E 023°32'0 0.0
2017-Nov-13 22:00N 38°02' E 023°32'0 0.0
2017-Nov-13 02:01N 38°02' E 023°32'0 0.0
2017-Nov-13 01:31N 38°02' E 023°32'0 0.0
2017-Nov-13 01:01N 38°02' E 023°32'0 0.0
2017-Nov-13 00:31N 38°02' E 023°32'0 0.0
2017-Nov-13 00:01N 38°02' E 023°32'0 0.0
2017-Nov-12 23:31N 38°02' E 023°32'0 0.0
2017-Nov-12 23:01N 38°02' E 023°32'0 0.0
2017-Nov-12 22:31N 38°02' E 023°32'0 0.0
2017-Nov-12 22:00N 38°02' E 023°32'0 0.0
2017-Nov-12 21:31N 38°02' E 023°32'0 0.0
2017-Nov-12 21:01N 38°02' E 023°32'0 0.0
2017-Nov-12 20:30N 38°02' E 023°32'0 0.0
2017-Nov-12 20:01N 38°02' E 023°32'0 0.0
2017-Nov-12 19:31N 38°02' E 023°32'0 0.0
2017-Nov-12 19:01N 38°02' E 023°32'0 0.0
2017-Nov-12 18:31N 38°02' E 023°32'0 0.0
2017-Nov-12 18:01N 38°02' E 023°32'0 0.0
2017-Nov-12 17:31N 38°02' E 023°32'0 0.0
2017-Nov-12 17:01N 38°02' E 023°32'0 0.0
2017-Nov-12 16:31N 38°02' E 023°32'0 0.0
2017-Nov-12 16:01N 38°02' E 023°32'0 0.0
2017-Nov-12 15:31N 38°02' E 023°32'0 0.0
2017-Nov-12 15:01N 38°02' E 023°32'0 0.0
2017-Nov-12 14:31N 38°02' E 023°32'0 0.0
2017-Nov-12 14:01N 38°02' E 023°32'0 0.0
2017-Nov-12 13:31N 38°02' E 023°32'0 0.0
2017-Nov-12 13:01N 38°02' E 023°32'0 0.0
2017-Nov-12 12:31N 38°02' E 023°32'0 0.0
2017-Nov-12 12:01N 38°02' E 023°32'0 0.0
2017-Nov-12 11:30N 38°02' E 023°32'0 0.0
2017-Nov-12 11:00N 38°02' E 023°32'0 0.0
2017-Nov-12 10:30N 38°02' E 023°32'0 0.0
2017-Nov-12 10:00N 38°02' E 023°32'0 0.0
2017-Nov-12 09:30N 38°02' E 023°32'0 0.0
2017-Nov-12 09:00N 38°02' E 023°32'0 0.0
2017-Nov-12 08:30N 38°02' E 023°32'0 0.0
2017-Nov-12 08:00N 38°02' E 023°32'0 0.0
2017-Nov-12 07:30N 38°02' E 023°32'0 0.2
2017-Nov-12 07:00N 38°02' E 023°32'0 0.0
2017-Nov-12 06:30N 38°02' E 023°32'0 0.0
2017-Nov-12 06:00N 38°02' E 023°32'0 0.0
2017-Nov-12 05:30N 38°02' E 023°32'0 0.0
2017-Nov-12 05:00N 38°02' E 023°32'0 0.0
2017-Nov-12 04:30N 38°02' E 023°32'0 0.0
2017-Nov-12 04:00N 38°02' E 023°32'0 0.0
2017-Nov-12 03:30N 38°02' E 023°32'0 0.0
2017-Nov-12 03:00N 38°02' E 023°32'0 0.0
2017-Nov-12 02:30N 38°02' E 023°32'0 0.0
2017-Nov-12 02:00N 38°02' E 023°32'0 0.0
2017-Nov-12 01:30N 38°02' E 023°32'0 0.0
2017-Nov-12 01:00N 38°02' E 023°32'0 0.0
2017-Nov-12 00:30N 38°02' E 023°32'0 0.0
2017-Nov-12 00:00N 38°02' E 023°32'0 0.0
2017-Nov-11 23:30N 38°02' E 023°32'0 0.0
2017-Nov-11 23:00N 38°02' E 023°32'0 0.0
2017-Nov-11 22:30N 38°02' E 023°32'0 0.0
2017-Nov-11 22:00N 38°02' E 023°32'0 0.0
2017-Nov-11 21:30N 38°02' E 023°32'0 0.0
2017-Nov-11 21:00N 38°02' E 023°32'0 0.0
2017-Nov-11 20:30N 38°02' E 023°32'0 0.0
2017-Nov-11 20:00N 38°02' E 023°32'0 0.0
2017-Nov-11 19:30N 38°02' E 023°32'0 0.1
2017-Nov-11 19:00N 38°02' E 023°32'0 0.1
2017-Nov-11 18:30N 38°02' E 023°32'0 0.0
2017-Nov-11 18:00N 38°02' E 023°32'0 0.0
2017-Nov-11 17:30N 38°02' E 023°32'0 0.0
2017-Nov-11 17:00N 38°02' E 023°32'0 0.0
2017-Nov-11 16:30N 38°02' E 023°32'0 0.0
2017-Nov-11 16:00N 38°02' E 023°32'0 0.0
2017-Nov-11 15:30N 38°02' E 023°32'0 0.0
2017-Nov-11 15:00N 38°02' E 023°32'0 0.0
2017-Nov-11 14:30N 38°02' E 023°32'0 0.0
2017-Nov-11 14:00N 38°02' E 023°32'0 0.0
2017-Nov-11 13:30N 38°02' E 023°32'0 0.0
2017-Nov-11 13:01N 38°02' E 023°32'0 0.0
2017-Nov-11 12:30N 38°02' E 023°32'0 0.0
2017-Nov-11 12:01N 38°02' E 023°32'0 0.0
2017-Nov-11 11:31N 38°02' E 023°32'0 0.0
2017-Nov-11 11:00N 38°02' E 023°32'0 0.1
2017-Nov-11 10:31N 38°02' E 023°32'0 0.0
2017-Nov-11 10:01N 38°02' E 023°32'0 0.1
2017-Nov-11 09:30N 38°02' E 023°32'0 0.1
2017-Nov-11 09:01N 38°02' E 023°32'0 0.0
2017-Nov-11 08:31N 38°02' E 023°32'0 0.1
2017-Nov-11 08:00N 38°02' E 023°32'0 0.0
2017-Nov-11 07:30N 38°02' E 023°32'0 0.0
2017-Nov-11 07:01N 38°02' E 023°32'0 0.0
2017-Nov-11 06:31N 38°02' E 023°32'0 0.0
2017-Nov-11 06:01N 38°02' E 023°32'0 0.0
2017-Nov-11 05:31N 38°02' E 023°32'0 0.0
2017-Nov-11 05:01N 38°02' E 023°32'0 0.0
2017-Nov-11 04:31N 38°02' E 023°32'0 0.0
2017-Nov-11 04:00N 38°02' E 023°32'0 0.0
2017-Nov-11 03:30N 38°02' E 023°32'0 0.0
2017-Nov-11 03:01N 38°02' E 023°32'0 0.0
2017-Nov-11 02:31N 38°02' E 023°32'0 0.0
2017-Nov-11 02:00N 38°02' E 023°32'0 0.0
2017-Nov-11 01:31N 38°02' E 023°32'0 0.0
2017-Nov-11 01:00N 38°02' E 023°32'0 0.0
2017-Nov-11 00:31N 38°02' E 023°32'0 0.0
2017-Nov-11 00:01N 38°02' E 023°32'0 0.0
2017-Nov-10 23:30N 38°02' E 023°32'0 0.0
2017-Nov-10 23:00N 38°02' E 023°32'0 0.0
2017-Nov-10 22:30N 38°02' E 023°32'0 0.0
2017-Nov-10 22:01N 38°02' E 023°32'0 0.0
2017-Nov-10 21:30N 38°02' E 023°32'0 0.0
2017-Nov-10 21:00N 38°02' E 023°32'0 0.0
2017-Nov-10 20:30N 38°02' E 023°32'0 0.0
2017-Nov-10 20:00N 38°02' E 023°32'0 0.0
2017-Nov-10 19:30N 38°02' E 023°32'0 0.0
2017-Nov-10 19:00N 38°02' E 023°32'0 0.1
2017-Nov-10 18:31N 38°02' E 023°32'0 0.0
2017-Nov-10 18:00N 38°02' E 023°32'0 0.0
2017-Nov-10 17:31N 38°02' E 023°32'0 0.1
2017-Nov-10 17:01N 38°02' E 023°32'0 0.0
2017-Nov-10 16:31N 38°02' E 023°32'0 0.0
2017-Nov-10 16:00N 38°02' E 023°32'0 0.0
2017-Nov-10 15:31N 38°02' E 023°32'0 0.0
2017-Nov-10 15:01N 38°02' E 023°32'0 0.0
2017-Nov-10 14:30N 38°02' E 023°32'0 0.0
2017-Nov-10 14:01N 38°02' E 023°32'0 0.0
2017-Nov-10 13:30N 38°02' E 023°32'0 0.0
2017-Nov-10 13:01N 38°02' E 023°32'0 0.0
2017-Nov-10 12:30N 38°02' E 023°32'0 0.0
2017-Nov-10 12:01N 38°02' E 023°32'0 0.0
2017-Nov-10 11:30N 38°02' E 023°32'0 0.0
2017-Nov-10 11:00N 38°02' E 023°32'0 0.0
2017-Nov-10 10:31N 38°02' E 023°32'0 0.0
2017-Nov-10 10:01N 38°02' E 023°32'0 0.0
2017-Nov-10 09:30N 38°02' E 023°32'0 0.0
2017-Nov-10 09:00N 38°02' E 023°32'0 0.0
2017-Nov-10 08:30N 38°02' E 023°32'0 0.0
2017-Nov-10 08:01N 38°02' E 023°32'0 0.0
2017-Nov-10 07:30N 38°02' E 023°32'0 0.0
2017-Nov-10 07:00N 38°02' E 023°32'0 0.0
2017-Nov-10 06:31N 38°02' E 023°32'0 0.0
2017-Nov-10 06:00N 38°02' E 023°32'0 0.0
2017-Nov-10 05:30N 38°02' E 023°32'0 0.0
2017-Nov-10 05:00N 38°02' E 023°32'0 0.1
2017-Nov-10 04:30N 38°02' E 023°32'0 0.0
2017-Nov-10 04:00N 38°02' E 023°32'0 0.1
2017-Nov-10 03:30N 38°02' E 023°32'0 0.1
2017-Nov-10 03:00N 38°02' E 023°32'0 0.0
2017-Nov-10 02:30N 38°02' E 023°32'0 0.0
2017-Nov-10 02:00N 38°02' E 023°32'0 0.0
2017-Nov-10 01:30N 38°02' E 023°32'0 0.0
2017-Nov-10 01:00N 38°02' E 023°32'0 0.0
2017-Nov-10 00:30N 38°02' E 023°32'0 0.0
2017-Nov-10 00:00N 38°02' E 023°32'0 0.0
2017-Nov-09 23:30N 38°02' E 023°32'0 0.0
2017-Nov-09 23:00N 38°02' E 023°32'0 0.0
2017-Nov-09 22:30N 38°02' E 023°32'0 0.0
2017-Nov-09 22:00N 38°02' E 023°32'0 0.0
2017-Nov-09 21:30N 38°02' E 023°32'0 0.0
2017-Nov-09 21:00N 38°02' E 023°32'0 0.0
2017-Nov-09 20:31N 38°02' E 023°32'0 0.0
2017-Nov-09 20:01N 38°02' E 023°32'0 0.0
2017-Nov-09 19:30N 38°02' E 023°32'0 0.0
2017-Nov-09 19:01N 38°02' E 023°32'0 0.0
2017-Nov-09 18:30N 38°02' E 023°32'0 0.0
2017-Nov-09 18:00N 38°02' E 023°32'0 0.0
2017-Nov-09 17:31N 38°02' E 023°32'0 0.0
2017-Nov-09 17:00N 38°02' E 023°32'0 0.0
2017-Nov-09 16:30N 38°02' E 023°32'0 0.0
2017-Nov-09 16:01N 38°02' E 023°32'0 0.1
2017-Nov-09 15:30N 38°02' E 023°32'0 0.0
2017-Nov-09 15:00N 38°02' E 023°32'0 0.0
2017-Nov-09 14:30N 38°02' E 023°32'0 0.0
2017-Nov-09 14:00N 38°02' E 023°32'0 0.0
2017-Nov-09 13:30N 38°02' E 023°32'0 0.0
2017-Nov-09 13:00N 38°02' E 023°32'0 0.0
2017-Nov-09 12:30N 38°02' E 023°32'0 0.0
2017-Nov-09 12:00N 38°02' E 023°32'0 0.0
2017-Nov-09 11:30N 38°02' E 023°32'0 0.0
2017-Nov-09 11:00N 38°02' E 023°32'0 0.0
2017-Nov-09 10:31N 38°02' E 023°32'0 0.0
2017-Nov-09 10:01N 38°02' E 023°32'0 0.0
2017-Nov-09 09:31N 38°02' E 023°32'0 0.1
2017-Nov-09 09:00N 38°02' E 023°32'0 0.0
2017-Nov-09 08:31N 38°02' E 023°32'0 0.0
2017-Nov-09 08:01N 38°02' E 023°32'0 0.0
2017-Nov-09 07:31N 38°02' E 023°32'0 0.1
2017-Nov-09 07:00N 38°02' E 023°32'0 0.0
2017-Nov-09 06:30N 38°02' E 023°32'0 0.0
2017-Nov-09 06:01N 38°02' E 023°32'0 0.0
2017-Nov-09 05:31N 38°02' E 023°32'0 0.0
2017-Nov-09 05:00N 38°02' E 023°32'0 0.0
2017-Nov-09 04:30N 38°02' E 023°32'0 0.0
2017-Nov-09 04:00N 38°02' E 023°32'0 0.0
2017-Nov-09 03:30N 38°02' E 023°32'0 0.0
2017-Nov-09 03:00N 38°02' E 023°32'0 0.0
2017-Nov-09 02:30N 38°02' E 023°32'0 0.1
2017-Nov-09 02:00N 38°02' E 023°32'0 0.1
2017-Nov-09 01:30N 38°02' E 023°32'0 0.0
2017-Nov-09 01:01N 38°02' E 023°32'0 0.0
2017-Nov-09 00:30N 38°02' E 023°32'0 0.0
2017-Nov-09 00:01N 38°02' E 023°32'0 0.0
2017-Nov-08 23:30N 38°02' E 023°32'0 0.0
2017-Nov-08 23:00N 38°02' E 023°32'0 0.1
2017-Nov-08 22:30N 38°02' E 023°32'0 0.1
2017-Nov-08 22:00N 38°02' E 023°32'0 0.0
2017-Nov-08 21:31N 38°02' E 023°32'0 0.0
2017-Nov-08 21:00N 38°02' E 023°32'0 0.0
2017-Nov-08 20:30N 38°02' E 023°32'0 0.0
2017-Nov-08 20:00N 38°02' E 023°32'0 0.1
2017-Nov-08 19:30N 38°02' E 023°32'0 0.0
2017-Nov-08 19:00N 38°02' E 023°32'0 0.0
2017-Nov-08 18:30N 38°02' E 023°32'0 0.0
2017-Nov-08 18:00N 38°02' E 023°32'0 0.0
2017-Nov-08 17:30N 38°02' E 023°32'0 0.0
2017-Nov-08 17:00N 38°02' E 023°32'0 0.0
2017-Nov-08 16:31N 38°02' E 023°32'0 0.0
2017-Nov-08 16:00N 38°02' E 023°32'0 0.0
2017-Nov-08 15:30N 38°02' E 023°32'0 0.0
2017-Nov-08 15:01N 38°02' E 023°32'0 0.0
2017-Nov-08 14:30N 38°02' E 023°32'0 0.0
2017-Nov-08 14:00N 38°02' E 023°32'0 0.0
2017-Nov-08 13:31N 38°02' E 023°32'0 0.1
2017-Nov-08 13:00N 38°02' E 023°32'0 0.0
2017-Nov-08 12:30N 38°02' E 023°32'0 0.1
2017-Nov-08 12:01N 38°02' E 023°32'0 0.0
2017-Nov-08 11:30N 38°02' E 023°32'0 0.1
2017-Nov-08 11:00N 38°02' E 023°32'0 0.0
2017-Nov-08 10:30N 38°02' E 023°32'0 0.1
2017-Nov-08 10:00N 38°02' E 023°32'0 0.1
2017-Nov-08 09:30N 38°02' E 023°32'0 0.0
2017-Nov-08 09:00N 38°02' E 023°32'0 0.0
2017-Nov-08 08:30N 38°02' E 023°32'0 0.0
2017-Nov-08 08:00N 38°02' E 023°32'0 0.0
2017-Nov-08 07:30N 38°02' E 023°32'0 0.0
2017-Nov-08 07:00N 38°02' E 023°32'0 0.0
2017-Nov-08 06:30N 38°02' E 023°32'0 0.0
2017-Nov-08 06:00N 38°02' E 023°32'0 0.0
2017-Nov-08 05:30N 38°02' E 023°32'0 0.0
2017-Nov-08 05:00N 38°02' E 023°32'0 0.0
2017-Nov-08 04:30N 38°02' E 023°32'0 0.0
2017-Nov-08 04:00N 38°02' E 023°32'0 0.0
2017-Nov-08 03:30N 38°02' E 023°32'0 0.0
2017-Nov-08 03:00N 38°02' E 023°32'0 0.0
2017-Nov-08 02:30N 38°02' E 023°32'0 0.0
2017-Nov-08 02:00N 38°02' E 023°32'0 0.0
2017-Nov-08 01:31N 38°02' E 023°32'0 0.0
2017-Nov-08 01:01N 38°02' E 023°32'0 0.0
2017-Nov-08 00:30N 38°02' E 023°32'0 0.0
2017-Nov-08 00:00N 38°02' E 023°32'0 0.0
2017-Nov-07 23:30N 38°02' E 023°32'0 0.0
2017-Nov-07 23:00N 38°02' E 023°32'0 0.0
2017-Nov-07 22:30N 38°02' E 023°32'0 0.0
2017-Nov-07 22:00N 38°02' E 023°32'0 0.0
2017-Nov-07 21:30N 38°02' E 023°32'0 0.0
2017-Nov-07 21:00N 38°02' E 023°32'0 0.1
2017-Nov-07 20:30N 38°02' E 023°32'0 0.1
2017-Nov-07 20:00N 38°02' E 023°32'0 0.0
2017-Nov-07 19:30N 38°02' E 023°32'0 0.0
2017-Nov-07 19:01N 38°02' E 023°32'0 0.1
2017-Nov-07 18:30N 38°02' E 023°32'0 0.0
2017-Nov-07 18:00N 38°02' E 023°32'0 0.1
2017-Nov-07 17:30N 38°02' E 023°32'0 0.0
2017-Nov-07 17:00N 38°02' E 023°32'0 0.0
2017-Nov-07 16:31N 38°02' E 023°32'0 0.0
2017-Nov-07 16:00N 38°02' E 023°32'0 0.0
2017-Nov-07 15:30N 38°02' E 023°32'0 0.0
2017-Nov-07 15:00N 38°02' E 023°32'  

Dump ship's entire track history